sensor_id;sensor_type;location;lat;lon;timestamp;temperature;humidity
6903;DHT22;20232;49.408;8.702;2022-11-15T05:02:12;9.00;99.90
6903;DHT22;20232;49.408;8.702;2022-11-15T05:04:38;9.00;99.90
6903;DHT22;20232;49.408;8.702;2022-11-15T05:07:04;9.00;99.90
6903;DHT22;20232;49.408;8.702;2022-11-15T05:09:30;9.10;99.90
6903;DHT22;20232;49.408;8.702;2022-11-15T05:11:55;9.10;99.90
6903;DHT22;20232;49.408;8.702;2022-11-15T05:14:21;9.10;99.90
6903;DHT22;20232;49.408;8.702;2022-11-15T05:16:47;9.10;99.90
6903;DHT22;20232;49.408;8.702;2022-11-15T05:19:12;9.10;99.90
6903;DHT22;20232;49.408;8.702;2022-11-15T05:21:38;9.00;99.90
6903;DHT22;20232;49.408;8.702;2022-11-15T05:24:04;9.00;99.90
6903;DHT22;20232;49.408;8.702;2022-11-15T05:26:30;9.10;99.90
6903;DHT22;20232;49.408;8.702;2022-11-15T05:28:57;9.10;99.90
6903;DHT22;20232;49.408;8.702;2022-11-15T05:31:24;9.00;99.90
6903;DHT22;20232;49.408;8.702;2022-11-15T05:33:50;9.10;99.90
6903;DHT22;20232;49.408;8.702;2022-11-15T05:38:53;9.10;99.90
6903;DHT22;20232;49.408;8.702;2022-11-15T05:41:21;9.20;99.90
6903;DHT22;20232;49.408;8.702;2022-11-15T05:43:48;9.20;99.90
6903;DHT22;20232;49.408;8.702;2022-11-15T05:46:15;9.30;99.90
6903;DHT22;20232;49.408;8.702;2022-11-15T05:48:43;9.20;99.90
6903;DHT22;20232;49.408;8.702;2022-11-15T05:51:09;9.20;99.90
6903;DHT22;20232;49.408;8.702;2022-11-15T05:53:36;9.20;99.90
6903;DHT22;20232;49.408;8.702;2022-11-15T05:56:03;9.20;99.90
6903;DHT22;20232;49.408;8.702;2022-11-15T05:58:33;9.10;99.90
6903;DHT22;20232;49.408;8.702;2022-11-15T06:00:59;9.20;99.90
6903;DHT22;20232;49.408;8.702;2022-11-15T06:03:25;9.20;99.90
6903;DHT22;20232;49.408;8.702;2022-11-15T06:05:51;9.20;99.90
6903;DHT22;20232;49.408;8.702;2022-11-15T06:08:16;9.30;99.90
6903;DHT22;20232;49.408;8.702;2022-11-15T06:10:42;9.30;99.90
6903;DHT22;20232;49.408;8.702;2022-11-15T06:13:07;9.30;99.90
6903;DHT22;20232;49.408;8.702;2022-11-15T06:15:33;9.30;99.90
6903;DHT22;20232;49.408;8.702;2022-11-15T06:18:00;9.30;99.90
6903;DHT22;20232;49.408;8.702;2022-11-15T06:20:27;9.30;99.90
6903;DHT22;20232;49.408;8.702;2022-11-15T06:23:00;9.30;99.90
6903;DHT22;20232;49.408;8.702;2022-11-15T06:25:27;9.30;99.90
6903;DHT22;20232;49.408;8.702;2022-11-15T06:27:53;9.30;99.90
6903;DHT22;20232;49.408;8.702;2022-11-15T06:30:20;9.30;99.90
6903;DHT22;20232;49.408;8.702;2022-11-15T06:32:46;9.30;99.90
6903;DHT22;20232;49.408;8.702;2022-11-15T06:35:12;9.30;99.90
6903;DHT22;20232;49.408;8.702;2022-11-15T06:37:37;9.30;99.90
6903;DHT22;20232;49.408;8.702;2022-11-15T06:40:03;9.30;99.90
6903;DHT22;20232;49.408;8.702;2022-11-15T06:42:29;9.30;99.90
6903;DHT22;20232;49.408;8.702;2022-11-15T06:44:54;9.30;99.90
6903;DHT22;20232;49.408;8.702;2022-11-15T06:47:20;9.30;99.90
6903;DHT22;20232;49.408;8.702;2022-11-15T06:49:46;9.30;99.90
6903;DHT22;20232;49.408;8.702;2022-11-15T06:52:11;9.30;99.90
6903;DHT22;20232;49.408;8.702;2022-11-15T06:54:37;9.40;99.90
6903;DHT22;20232;49.408;8.702;2022-11-15T06:57:04;9.40;99.90
6903;DHT22;20232;49.408;8.702;2022-11-15T06:59:30;9.40;99.90
6903;DHT22;20232;49.408;8.702;2022-11-15T07:01:55;9.40;99.90
6903;DHT22;20232;49.408;8.702;2022-11-15T07:04:21;9.40;99.90
6903;DHT22;20232;49.408;8.702;2022-11-15T07:06:49;9.30;99.90
6903;DHT22;20232;49.408;8.702;2022-11-15T07:09:15;9.40;99.90
6903;DHT22;20232;49.408;8.702;2022-11-15T07:11:40;9.40;99.90
6903;DHT22;20232;49.408;8.702;2022-11-15T07:14:06;9.30;99.90
6903;DHT22;20232;49.408;8.702;2022-11-15T07:16:31;9.40;99.90
6903;DHT22;20232;49.408;8.702;2022-11-15T07:18:57;9.50;99.90
6903;DHT22;20232;49.408;8.702;2022-11-15T07:21:23;9.60;99.90
6903;DHT22;20232;49.408;8.702;2022-11-15T07:23:49;9.60;99.90
6903;DHT22;20232;49.408;8.702;2022-11-15T07:26:14;9.70;99.90
6903;DHT22;20232;49.408;8.702;2022-11-15T07:28:40;9.70;99.90
6903;DHT22;20232;49.408;8.702;2022-11-15T07:31:08;9.70;99.90
6903;DHT22;20232;49.408;8.702;2022-11-15T07:33:34;9.70;99.90
6903;DHT22;20232;49.408;8.702;2022-11-15T07:36:01;9.80;99.90
6903;DHT22;20232;49.408;8.702;2022-11-15T07:38:29;9.80;99.90
6903;DHT22;20232;49.408;8.702;2022-11-15T07:40:59;9.80;99.90
6903;DHT22;20232;49.408;8.702;2022-11-15T07:43:25;9.90;99.90
6903;DHT22;20232;49.408;8.702;2022-11-15T07:45:53;9.90;99.90
6903;DHT22;20232;49.408;8.702;2022-11-15T07:48:19;10.00;99.90
6903;DHT22;20232;49.408;8.702;2022-11-15T07:50:44;10.10;99.90
6903;DHT22;20232;49.408;8.702;2022-11-15T07:53:10;10.20;99.90
6903;DHT22;20232;49.408;8.702;2022-11-15T07:55:36;10.20;99.90
6903;DHT22;20232;49.408;8.702;2022-11-15T07:58:07;10.30;99.90
6903;DHT22;20232;49.408;8.702;2022-11-15T08:00:34;10.40;99.90
6903;DHT22;20232;49.408;8.702;2022-11-15T08:03:08;10.40;99.90
6903;DHT22;20232;49.408;8.702;2022-11-15T08:05:35;10.50;99.90
6903;DHT22;20232;49.408;8.702;2022-11-15T08:08:02;10.60;99.90
6903;DHT22;20232;49.408;8.702;2022-11-15T08:10:28;10.60;99.90
6903;DHT22;20232;49.408;8.702;2022-11-15T08:13:00;10.70;99.90
6903;DHT22;20232;49.408;8.702;2022-11-15T08:15:26;10.80;99.90
6903;DHT22;20232;49.408;8.702;2022-11-15T08:18:00;10.80;99.90
6903;DHT22;20232;49.408;8.702;2022-11-15T08:20:27;10.90;99.90
6903;DHT22;20232;49.408;8.702;2022-11-15T08:22:58;11.00;99.90
6903;DHT22;20232;49.408;8.702;2022-11-15T08:25:26;11.00;99.90
6903;DHT22;20232;49.408;8.702;2022-11-15T08:27:55;11.00;99.90
6903;DHT22;20232;49.408;8.702;2022-11-15T08:30:22;11.10;99.90
6903;DHT22;20232;49.408;8.702;2022-11-15T08:32:51;11.20;99.90
6903;DHT22;20232;49.408;8.702;2022-11-15T08:35:18;11.20;99.90
6903;DHT22;20232;49.408;8.702;2022-11-15T08:37:44;11.20;99.90
6903;DHT22;20232;49.408;8.702;2022-11-15T08:40:10;11.20;99.90
6903;DHT22;20232;49.408;8.702;2022-11-15T08:42:36;11.20;99.90
6903;DHT22;20232;49.408;8.702;2022-11-15T08:45:02;11.20;99.90
6903;DHT22;20232;49.408;8.702;2022-11-15T08:47:28;11.20;99.90
6903;DHT22;20232;49.408;8.702;2022-11-15T08:49:53;11.20;99.90
6903;DHT22;20232;49.408;8.702;2022-11-15T08:52:19;11.30;99.90
6903;DHT22;20232;49.408;8.702;2022-11-15T08:54:45;11.40;99.90
6903;DHT22;20232;49.408;8.702;2022-11-15T08:57:10;11.40;99.90
6903;DHT22;20232;49.408;8.702;2022-11-15T08:59:36;11.30;99.90
6903;DHT22;20232;49.408;8.702;2022-11-15T09:02:02;11.40;99.90
6903;DHT22;20232;49.408;8.702;2022-11-15T09:04:28;11.40;99.90
6903;DHT22;20232;49.408;8.702;2022-11-15T09:06:53;11.30;99.90
6903;DHT22;20232;49.408;8.702;2022-11-15T09:09:19;11.30;99.90
6903;DHT22;20232;49.408;8.702;2022-11-15T09:11:45;11.40;99.90
6903;DHT22;20232;49.408;8.702;2022-11-15T09:14:11;11.40;99.90
6903;DHT22;20232;49.408;8.702;2022-11-15T09:16:37;11.50;99.90
6903;DHT22;20232;49.408;8.702;2022-11-15T09:19:03;11.50;99.90
6903;DHT22;20232;49.408;8.702;2022-11-15T09:21:29;11.50;99.90
6903;DHT22;20232;49.408;8.702;2022-11-15T09:23:55;11.60;99.90
6903;DHT22;20232;49.408;8.702;2022-11-15T09:26:21;11.80;99.90
6903;DHT22;20232;49.408;8.702;2022-11-15T09:28:46;11.90;99.90
6903;DHT22;20232;49.408;8.702;2022-11-15T09:31:12;12.10;99.90
6903;DHT22;20232;49.408;8.702;2022-11-15T09:33:38;12.20;99.90
6903;DHT22;20232;49.408;8.702;2022-11-15T09:36:06;12.50;99.90
6903;DHT22;20232;49.408;8.702;2022-11-15T09:38:33;12.80;99.90
6903;DHT22;20232;49.408;8.702;2022-11-15T09:49:02;13.00;99.90
6903;DHT22;20232;49.408;8.702;2022-11-15T09:51:37;13.10;99.90
6903;DHT22;20232;49.408;8.702;2022-11-15T09:54:35;13.20;99.90
6903;DHT22;20232;49.408;8.702;2022-11-15T09:57:31;13.20;99.90
6903;DHT22;20232;49.408;8.702;2022-11-15T10:00:20;13.10;99.90
6903;DHT22;20232;49.408;8.702;2022-11-15T10:05:43;13.00;99.90
6903;DHT22;20232;49.408;8.702;2022-11-15T10:08:31;13.00;99.90
6903;DHT22;20232;49.408;8.702;2022-11-15T10:11:21;13.20;99.90
6903;DHT22;20232;49.408;8.702;2022-11-15T10:13:48;13.40;99.90
6903;DHT22;20232;49.408;8.702;2022-11-15T10:19:28;13.60;99.90
6903;DHT22;20232;49.408;8.702;2022-11-15T10:24:27;13.40;99.90
6903;DHT22;20232;49.408;8.702;2022-11-15T10:26:56;13.40;99.90
6903;DHT22;20232;49.408;8.702;2022-11-15T10:29:23;13.50;99.90
6903;DHT22;20232;49.408;8.702;2022-11-15T10:31:49;13.70;99.90
6903;DHT22;20232;49.408;8.702;2022-11-15T10:34:18;13.80;99.90
6903;DHT22;20232;49.408;8.702;2022-11-15T10:36:46;13.90;99.90
6903;DHT22;20232;49.408;8.702;2022-11-15T10:39:13;14.10;99.90
6903;DHT22;20232;49.408;8.702;2022-11-15T10:41:41;14.30;99.90
6903;DHT22;20232;49.408;8.702;2022-11-15T10:46:40;14.40;99.90
6903;DHT22;20232;49.408;8.702;2022-11-15T10:49:21;14.20;99.90
6903;DHT22;20232;49.408;8.702;2022-11-15T10:51:53;14.10;99.90
6903;DHT22;20232;49.408;8.702;2022-11-15T10:56:57;14.30;99.90
6903;DHT22;20232;49.408;8.702;2022-11-15T10:59:29;14.40;99.90
6903;DHT22;20232;49.408;8.702;2022-11-15T11:01:56;14.50;99.90
6903;DHT22;20232;49.408;8.702;2022-11-15T11:04:21;14.40;99.90
6903;DHT22;20232;49.408;8.702;2022-11-15T11:06:59;14.50;99.90
6903;DHT22;20232;49.408;8.702;2022-11-15T11:09:37;14.70;99.90
6903;DHT22;20232;49.408;8.702;2022-11-15T11:12:05;14.90;99.90
6903;DHT22;20232;49.408;8.702;2022-11-15T11:14:35;15.00;99.90
6903;DHT22;20232;49.408;8.702;2022-11-15T11:17:13;15.20;99.90
6903;DHT22;20232;49.408;8.702;2022-11-15T11:41:20;15.50;99.90
6903;DHT22;20232;49.408;8.702;2022-11-15T12:17:34;14.80;99.90
6903;DHT22;20232;49.408;8.702;2022-11-15T12:20:25;14.80;99.90
6903;DHT22;20232;49.408;8.702;2022-11-15T12:22:59;14.70;99.90
6903;DHT22;20232;49.408;8.702;2022-11-15T12:25:31;14.70;99.90
6903;DHT22;20232;49.408;8.702;2022-11-15T12:28:11;14.70;99.90
6903;DHT22;20232;49.408;8.702;2022-11-15T12:30:54;14.70;99.90
6903;DHT22;20232;49.408;8.702;2022-11-15T12:33:40;14.90;99.90
6903;DHT22;20232;49.408;8.702;2022-11-15T12:41:18;14.70;99.90
6903;DHT22;20232;49.408;8.702;2022-11-15T12:43:45;14.60;99.90
6903;DHT22;20232;49.408;8.702;2022-11-15T12:51:04;14.20;99.90
6903;DHT22;20232;49.408;8.702;2022-11-15T12:53:32;14.00;99.90
6903;DHT22;20232;49.408;8.702;2022-11-15T13:04:13;14.10;99.90
6903;DHT22;20232;49.408;8.702;2022-11-15T13:07:03;14.20;99.90
6903;DHT22;20232;49.408;8.702;2022-11-15T13:11:58;14.30;99.90
6903;DHT22;20232;49.408;8.702;2022-11-15T13:17:03;14.40;99.90
6903;DHT22;20232;49.408;8.702;2022-11-15T13:19:38;14.50;99.90
6903;DHT22;20232;49.408;8.702;2022-11-15T13:22:08;14.50;99.90
6903;DHT22;20232;49.408;8.702;2022-11-15T13:24:53;14.60;99.90
6903;DHT22;20232;49.408;8.702;2022-11-15T13:27:19;14.50;99.90
6903;DHT22;20232;49.408;8.702;2022-11-15T13:29:45;14.60;99.90
6903;DHT22;20232;49.408;8.702;2022-11-15T13:32:15;14.60;99.90
6903;DHT22;20232;49.408;8.702;2022-11-15T13:34:46;14.60;99.90
6903;DHT22;20232;49.408;8.702;2022-11-15T13:39:48;14.40;99.90
6903;DHT22;20232;49.408;8.702;2022-11-15T13:42:19;14.40;99.90
6903;DHT22;20232;49.408;8.702;2022-11-15T13:44:56;14.40;99.90
6903;DHT22;20232;49.408;8.702;2022-11-15T13:47:26;14.40;99.90
6903;DHT22;20232;49.408;8.702;2022-11-15T13:49:58;14.30;99.90
6903;DHT22;20232;49.408;8.702;2022-11-15T13:52:31;14.30;99.90
6903;DHT22;20232;49.408;8.702;2022-11-15T13:54:59;14.30;99.90
6903;DHT22;20232;49.408;8.702;2022-11-15T13:57:30;14.30;99.90
6903;DHT22;20232;49.408;8.702;2022-11-15T14:00:02;14.30;99.90
6903;DHT22;20232;49.408;8.702;2022-11-15T14:02:31;14.50;99.90
6903;DHT22;20232;49.408;8.702;2022-11-15T14:05:21;14.60;99.90
6903;DHT22;20232;49.408;8.702;2022-11-15T14:08:00;14.90;99.90
6903;DHT22;20232;49.408;8.702;2022-11-15T14:10:32;15.00;99.90
6903;DHT22;20232;49.408;8.702;2022-11-15T14:12:58;15.20;99.90
6903;DHT22;20232;49.408;8.702;2022-11-15T14:15:35;15.30;99.90
6903;DHT22;20232;49.408;8.702;2022-11-15T14:18:01;15.10;99.90
6903;DHT22;20232;49.408;8.702;2022-11-15T14:20:31;14.90;99.90
6903;DHT22;20232;49.408;8.702;2022-11-15T14:23:03;14.80;99.90
6903;DHT22;20232;49.408;8.702;2022-11-15T14:25:35;14.60;99.90
6903;DHT22;20232;49.408;8.702;2022-11-15T14:30:48;14.30;99.90
6903;DHT22;20232;49.408;8.702;2022-11-15T14:33:37;14.10;99.90
6903;DHT22;20232;49.408;8.702;2022-11-15T14:36:20;14.10;99.90
6903;DHT22;20232;49.408;8.702;2022-11-15T14:38:47;14.00;99.90
6903;DHT22;20232;49.408;8.702;2022-11-15T14:41:21;14.00;99.90
6903;DHT22;20232;49.408;8.702;2022-11-15T14:43:47;13.90;99.90
6903;DHT22;20232;49.408;8.702;2022-11-15T14:46:13;13.80;99.90
6903;DHT22;20232;49.408;8.702;2022-11-15T14:48:39;13.80;99.90
6903;DHT22;20232;49.408;8.702;2022-11-15T14:51:13;13.80;99.90
6903;DHT22;20232;49.408;8.702;2022-11-15T14:53:40;13.90;99.90
6903;DHT22;20232;49.408;8.702;2022-11-15T14:56:06;13.80;99.90
6903;DHT22;20232;49.408;8.702;2022-11-15T14:58:32;13.90;99.90
6903;DHT22;20232;49.408;8.702;2022-11-15T15:00:57;13.80;99.90
6903;DHT22;20232;49.408;8.702;2022-11-15T15:03:23;13.90;99.90
6903;DHT22;20232;49.408;8.702;2022-11-15T15:05:49;13.90;99.90
6903;DHT22;20232;49.408;8.702;2022-11-15T15:08:14;13.90;99.90
6903;DHT22;20232;49.408;8.702;2022-11-15T15:10:44;13.90;99.90
6903;DHT22;20232;49.408;8.702;2022-11-15T15:13:23;13.80;99.90
6903;DHT22;20232;49.408;8.702;2022-11-15T15:15:50;13.90;99.90
6903;DHT22;20232;49.408;8.702;2022-11-15T15:18:16;13.90;99.90
6903;DHT22;20232;49.408;8.702;2022-11-15T15:20:44;13.90;99.90
6903;DHT22;20232;49.408;8.702;2022-11-15T15:23:16;13.80;99.90
6903;DHT22;20232;49.408;8.702;2022-11-15T15:25:42;13.80;99.90
6903;DHT22;20232;49.408;8.702;2022-11-15T15:28:08;13.70;99.90
6903;DHT22;20232;49.408;8.702;2022-11-15T15:30:34;13.70;99.90
6903;DHT22;20232;49.408;8.702;2022-11-15T15:33:00;13.60;99.90
6903;DHT22;20232;49.408;8.702;2022-11-15T15:35:29;13.70;99.90
6903;DHT22;20232;49.408;8.702;2022-11-15T15:37:55;13.60;99.90
6903;DHT22;20232;49.408;8.702;2022-11-15T15:40:22;13.50;99.90
6903;DHT22;20232;49.408;8.702;2022-11-15T15:42:49;13.50;99.90
6903;DHT22;20232;49.408;8.702;2022-11-15T15:45:16;13.50;99.90
6903;DHT22;20232;49.408;8.702;2022-11-15T15:47:42;13.60;99.90
6903;DHT22;20232;49.408;8.702;2022-11-15T15:50:26;13.60;99.90
6903;DHT22;20232;49.408;8.702;2022-11-15T15:52:54;13.70;99.90
6903;DHT22;20232;49.408;8.702;2022-11-15T15:55:20;13.70;99.90
6903;DHT22;20232;49.408;8.702;2022-11-15T15:57:46;13.70;99.90
6903;DHT22;20232;49.408;8.702;2022-11-15T16:00:12;13.70;99.90
6903;DHT22;20232;49.408;8.702;2022-11-15T16:02:38;13.70;99.90
6903;DHT22;20232;49.408;8.702;2022-11-15T16:05:04;13.70;99.90
6903;DHT22;20232;49.408;8.702;2022-11-15T16:07:30;13.70;99.90
6903;DHT22;20232;49.408;8.702;2022-11-15T16:09:55;13.70;99.90
6903;DHT22;20232;49.408;8.702;2022-11-15T16:12:34;13.70;99.90
6903;DHT22;20232;49.408;8.702;2022-11-15T16:15:00;13.60;99.90
6903;DHT22;20232;49.408;8.702;2022-11-15T16:17:39;13.60;99.90
6903;DHT22;20232;49.408;8.702;2022-11-15T16:20:08;13.60;99.90
6903;DHT22;20232;49.408;8.702;2022-11-15T16:22:39;13.60;99.90
6903;DHT22;20232;49.408;8.702;2022-11-15T16:25:05;13.70;99.90
6903;DHT22;20232;49.408;8.702;2022-11-15T16:27:31;13.70;99.90
6903;DHT22;20232;49.408;8.702;2022-11-15T16:29:56;13.70;99.90
6903;DHT22;20232;49.408;8.702;2022-11-15T16:32:22;13.60;99.90
6903;DHT22;20232;49.408;8.702;2022-11-15T16:34:48;13.70;99.90
6903;DHT22;20232;49.408;8.702;2022-11-15T16:37:23;13.80;99.90
6903;DHT22;20232;49.408;8.702;2022-11-15T16:39:49;13.80;99.90
6903;DHT22;20232;49.408;8.702;2022-11-15T16:42:15;13.80;99.90
6903;DHT22;20232;49.408;8.702;2022-11-15T16:44:41;13.80;99.90
6903;DHT22;20232;49.408;8.702;2022-11-15T16:47:16;13.80;99.90
6903;DHT22;20232;49.408;8.702;2022-11-15T16:49:43;13.80;99.90
6903;DHT22;20232;49.408;8.702;2022-11-15T16:52:09;13.80;99.90
6903;DHT22;20232;49.408;8.702;2022-11-15T16:54:35;13.80;99.90
6903;DHT22;20232;49.408;8.702;2022-11-15T16:57:01;13.80;99.90
6903;DHT22;20232;49.408;8.702;2022-11-15T16:59:26;13.70;99.90
6903;DHT22;20232;49.408;8.702;2022-11-15T17:01:52;13.70;99.90
6903;DHT22;20232;49.408;8.702;2022-11-15T17:04:18;13.70;99.90
6903;DHT22;20232;49.408;8.702;2022-11-15T17:06:46;13.60;99.90
6903;DHT22;20232;49.408;8.702;2022-11-15T17:09:14;13.60;99.90
6903;DHT22;20232;49.408;8.702;2022-11-15T17:11:41;13.60;99.90
6903;DHT22;20232;49.408;8.702;2022-11-15T17:14:08;13.60;99.90
6903;DHT22;20232;49.408;8.702;2022-11-15T17:16:33;13.60;99.90
6903;DHT22;20232;49.408;8.702;2022-11-15T17:19:00;13.50;99.90
6903;DHT22;20232;49.408;8.702;2022-11-15T17:21:26;13.50;99.90
6903;DHT22;20232;49.408;8.702;2022-11-15T17:23:53;13.50;99.90
6903;DHT22;20232;49.408;8.702;2022-11-15T17:26:19;13.50;99.90
6903;DHT22;20232;49.408;8.702;2022-11-15T17:28:45;13.70;99.90
6903;DHT22;20232;49.408;8.702;2022-11-15T17:31:12;13.80;99.90
6903;DHT22;20232;49.408;8.702;2022-11-15T17:33:39;13.80;99.90
6903;DHT22;20232;49.408;8.702;2022-11-15T17:36:09;13.80;99.90
6903;DHT22;20232;49.408;8.702;2022-11-15T17:38:35;13.80;99.90
6903;DHT22;20232;49.408;8.702;2022-11-15T17:41:13;13.70;99.90
6903;DHT22;20232;49.408;8.702;2022-11-15T17:43:40;13.60;99.90
6903;DHT22;20232;49.408;8.702;2022-11-15T17:46:07;13.60;99.90
6903;DHT22;20232;49.408;8.702;2022-11-15T17:48:33;13.60;99.90
6903;DHT22;20232;49.408;8.702;2022-11-15T17:51:01;13.60;99.90
6903;DHT22;20232;49.408;8.702;2022-11-15T17:53:30;13.60;99.90
6903;DHT22;20232;49.408;8.702;2022-11-15T17:58:34;13.50;99.90
6903;DHT22;20232;49.408;8.702;2022-11-15T18:01:08;13.50;99.90
6903;DHT22;20232;49.408;8.702;2022-11-15T18:03:37;13.50;99.90
6903;DHT22;20232;49.408;8.702;2022-11-15T18:06:04;13.50;99.90
6903;DHT22;20232;49.408;8.702;2022-11-15T18:08:31;13.50;99.90
6903;DHT22;20232;49.408;8.702;2022-11-15T18:11:09;13.50;99.90
6903;DHT22;20232;49.408;8.702;2022-11-15T18:13:36;13.50;99.90
6903;DHT22;20232;49.408;8.702;2022-11-15T18:16:11;13.50;99.90
6903;DHT22;20232;49.408;8.702;2022-11-15T18:18:37;13.60;99.90
6903;DHT22;20232;49.408;8.702;2022-11-15T18:21:07;13.60;99.90
6903;DHT22;20232;49.408;8.702;2022-11-15T18:23:33;13.60;99.90
6903;DHT22;20232;49.408;8.702;2022-11-15T18:26:00;13.60;99.90
6903;DHT22;20232;49.408;8.702;2022-11-15T18:28:33;13.60;99.90
6903;DHT22;20232;49.408;8.702;2022-11-15T18:31:00;13.50;99.90
6903;DHT22;20232;49.408;8.702;2022-11-15T18:33:27;13.40;99.90
6903;DHT22;20232;49.408;8.702;2022-11-15T18:36:00;13.40;99.90
6903;DHT22;20232;49.408;8.702;2022-11-15T18:38:26;13.30;99.90
6903;DHT22;20232;49.408;8.702;2022-11-15T18:40:56;13.30;99.90
6903;DHT22;20232;49.408;8.702;2022-11-15T18:43:21;13.10;99.90
6903;DHT22;20232;49.408;8.702;2022-11-15T18:45:47;13.10;99.90
6903;DHT22;20232;49.408;8.702;2022-11-15T18:48:15;13.10;99.90
6903;DHT22;20232;49.408;8.702;2022-11-15T18:50:41;13.10;99.90
6903;DHT22;20232;49.408;8.702;2022-11-15T18:53:06;13.10;99.90
6903;DHT22;20232;49.408;8.702;2022-11-15T18:55:32;13.10;99.90
6903;DHT22;20232;49.408;8.702;2022-11-15T18:57:58;13.10;99.90
6903;DHT22;20232;49.408;8.702;2022-11-15T19:00:23;13.10;99.90
6903;DHT22;20232;49.408;8.702;2022-11-15T19:02:49;13.10;99.90
6903;DHT22;20232;49.408;8.702;2022-11-15T19:05:14;13.10;99.90
6903;DHT22;20232;49.408;8.702;2022-11-15T19:07:46;13.10;99.90
6903;DHT22;20232;49.408;8.702;2022-11-15T19:10:11;13.10;99.90
6903;DHT22;20232;49.408;8.702;2022-11-15T19:12:37;13.10;99.90
6903;DHT22;20232;49.408;8.702;2022-11-15T19:15:03;13.00;99.90
6903;DHT22;20232;49.408;8.702;2022-11-15T19:17:28;13.00;99.90
6903;DHT22;20232;49.408;8.702;2022-11-15T19:19:54;13.00;99.90
6903;DHT22;20232;49.408;8.702;2022-11-15T19:22:19;13.00;99.90
6903;DHT22;20232;49.408;8.702;2022-11-15T19:24:45;12.90;99.90
6903;DHT22;20232;49.408;8.702;2022-11-15T19:27:10;12.90;99.90
6903;DHT22;20232;49.408;8.702;2022-11-15T19:29:36;12.80;99.90
6903;DHT22;20232;49.408;8.702;2022-11-15T19:32:01;12.80;99.90
6903;DHT22;20232;49.408;8.702;2022-11-15T19:34:29;12.70;99.90
6903;DHT22;20232;49.408;8.702;2022-11-15T19:36:55;12.60;99.90
6903;DHT22;20232;49.408;8.702;2022-11-15T19:39:20;12.60;99.90
6903;DHT22;20232;49.408;8.702;2022-11-15T19:41:46;12.50;99.90
6903;DHT22;20232;49.408;8.702;2022-11-15T19:44:12;12.60;99.90
6903;DHT22;20232;49.408;8.702;2022-11-15T19:46:38;12.60;99.90
6903;DHT22;20232;49.408;8.702;2022-11-15T19:49:04;12.60;99.90
6903;DHT22;20232;49.408;8.702;2022-11-15T19:51:35;12.60;99.90
6903;DHT22;20232;49.408;8.702;2022-11-15T19:54:01;12.60;99.90
6903;DHT22;20232;49.408;8.702;2022-11-15T19:56:31;12.50;99.90
6903;DHT22;20232;49.408;8.702;2022-11-15T19:58:57;12.50;99.90
6903;DHT22;20232;49.408;8.702;2022-11-15T20:01:25;12.50;99.90
6903;DHT22;20232;49.408;8.702;2022-11-15T20:03:53;12.50;99.90
6903;DHT22;20232;49.408;8.702;2022-11-15T20:06:25;12.50;99.90
6903;DHT22;20232;49.408;8.702;2022-11-15T20:08:51;12.40;99.90
6903;DHT22;20232;49.408;8.702;2022-11-15T20:11:17;12.50;99.90
6903;DHT22;20232;49.408;8.702;2022-11-15T20:13:43;12.40;99.90
6903;DHT22;20232;49.408;8.702;2022-11-15T20:16:15;12.40;99.90
6903;DHT22;20232;49.408;8.702;2022-11-15T20:18:41;12.40;99.90
6903;DHT22;20232;49.408;8.702;2022-11-15T20:21:08;12.40;99.90
6903;DHT22;20232;49.408;8.702;2022-11-15T20:23:34;12.50;99.90
6903;DHT22;20232;49.408;8.702;2022-11-15T20:25:59;12.40;99.90
6903;DHT22;20232;49.408;8.702;2022-11-15T20:28:26;12.40;99.90
6903;DHT22;20232;49.408;8.702;2022-11-15T20:30:54;12.40;99.90
6903;DHT22;20232;49.408;8.702;2022-11-15T20:33:21;12.40;99.90
6903;DHT22;20232;49.408;8.702;2022-11-15T20:35:47;12.40;99.90
6903;DHT22;20232;49.408;8.702;2022-11-15T20:38:13;12.30;99.90
6903;DHT22;20232;49.408;8.702;2022-11-15T20:40:39;12.30;99.90
6903;DHT22;20232;49.408;8.702;2022-11-15T20:43:05;12.30;99.90
6903;DHT22;20232;49.408;8.702;2022-11-15T20:45:31;12.20;99.90
6903;DHT22;20232;49.408;8.702;2022-11-15T20:47:57;12.10;99.90
6903;DHT22;20232;49.408;8.702;2022-11-15T20:50:24;12.10;99.90
6903;DHT22;20232;49.408;8.702;2022-11-15T20:52:50;12.10;99.90
6903;DHT22;20232;49.408;8.702;2022-11-15T20:55:16;12.20;99.90
6903;DHT22;20232;49.408;8.702;2022-11-15T20:57:42;12.20;99.90
6903;DHT22;20232;49.408;8.702;2022-11-15T21:00:08;12.30;99.90
6903;DHT22;20232;49.408;8.702;2022-11-15T21:02:34;12.30;99.90
6903;DHT22;20232;49.408;8.702;2022-11-15T21:05:00;12.20;99.90
6903;DHT22;20232;49.408;8.702;2022-11-15T21:07:26;12.30;99.90
6903;DHT22;20232;49.408;8.702;2022-11-15T21:09:51;12.40;99.90
6903;DHT22;20232;49.408;8.702;2022-11-15T21:12:36;12.20;99.90
6903;DHT22;20232;49.408;8.702;2022-11-15T21:15:02;12.20;99.90
6903;DHT22;20232;49.408;8.702;2022-11-15T21:17:28;12.10;99.90
6903;DHT22;20232;49.408;8.702;2022-11-15T21:19:53;12.10;99.90
6903;DHT22;20232;49.408;8.702;2022-11-15T21:22:19;12.10;99.90
6903;DHT22;20232;49.408;8.702;2022-11-15T21:24:45;12.00;99.90
6903;DHT22;20232;49.408;8.702;2022-11-15T21:27:10;12.00;99.90
6903;DHT22;20232;49.408;8.702;2022-11-15T21:29:36;12.00;99.90
6903;DHT22;20232;49.408;8.702;2022-11-15T21:32:04;12.00;99.90
6903;DHT22;20232;49.408;8.702;2022-11-15T21:34:29;12.00;99.90
6903;DHT22;20232;49.408;8.702;2022-11-15T21:36:55;12.00;99.90
6903;DHT22;20232;49.408;8.702;2022-11-15T21:39:21;12.00;99.90
6903;DHT22;20232;49.408;8.702;2022-11-15T21:41:46;12.00;99.90
6903;DHT22;20232;49.408;8.702;2022-11-15T21:44:12;12.00;99.90
6903;DHT22;20232;49.408;8.702;2022-11-15T21:46:37;12.00;99.90
6903;DHT22;20232;49.408;8.702;2022-11-15T21:49:04;11.90;99.90
6903;DHT22;20232;49.408;8.702;2022-11-15T21:51:30;11.80;99.90
6903;DHT22;20232;49.408;8.702;2022-11-15T21:53:56;11.80;99.90
6903;DHT22;20232;49.408;8.702;2022-11-15T21:56:22;11.90;99.90
6903;DHT22;20232;49.408;8.702;2022-11-15T21:58:48;11.90;99.90
6903;DHT22;20232;49.408;8.702;2022-11-15T22:01:13;11.90;99.90
6903;DHT22;20232;49.408;8.702;2022-11-15T22:03:57;11.90;99.90
6903;DHT22;20232;49.408;8.702;2022-11-15T22:06:23;11.90;99.90
6903;DHT22;20232;49.408;8.702;2022-11-15T22:08:49;11.90;99.90
6903;DHT22;20232;49.408;8.702;2022-11-15T22:11:14;11.90;99.90
6903;DHT22;20232;49.408;8.702;2022-11-15T22:13:41;11.90;99.90
6903;DHT22;20232;49.408;8.702;2022-11-15T22:16:07;11.80;99.90
6903;DHT22;20232;49.408;8.702;2022-11-15T22:18:32;11.80;99.90
6903;DHT22;20232;49.408;8.702;2022-11-15T22:21:04;11.70;99.90
6903;DHT22;20232;49.408;8.702;2022-11-15T22:23:32;11.70;99.90
6903;DHT22;20232;49.408;8.702;2022-11-15T22:25:58;11.60;99.90
6903;DHT22;20232;49.408;8.702;2022-11-15T22:28:25;11.50;99.90
6903;DHT22;20232;49.408;8.702;2022-11-15T22:30:53;11.40;99.90
6903;DHT22;20232;49.408;8.702;2022-11-15T22:33:21;11.40;99.90
6903;DHT22;20232;49.408;8.702;2022-11-15T22:35:47;11.40;99.90
6903;DHT22;20232;49.408;8.702;2022-11-15T22:38:13;11.40;99.90
6903;DHT22;20232;49.408;8.702;2022-11-15T22:40:39;11.40;99.90
6903;DHT22;20232;49.408;8.702;2022-11-15T22:43:05;11.30;99.90
6903;DHT22;20232;49.408;8.702;2022-11-15T22:45:30;11.30;99.90
6903;DHT22;20232;49.408;8.702;2022-11-15T22:47:56;11.30;99.90